Time;durP1;ratioP1;P1;durP2;ratioP2;P2;SDS_P1;SDS_P2;PMS_P1;PMS_P2;Temp;Humidity;BMP_temperature;BMP_pressure;BME280_temperature;BME280_humidity;BME280_pressure;Samples;Min_cycle;Max_cycle;Signal;HPM_P1;HPM_P2
2023/11/10 00:01:20;;;;;;;;;;;;;;;8.93;54.34;100128.03;5073330;28;19983;-77
2023/11/10 00:03:46;;;;;;;;;;;;;;;8.88;54.28;100128.47;5073368;28;19995;-77
2023/11/10 00:06:11;;;;;;;;;;;;;;;8.94;54.51;100132.34;5073235;28;19919;-77
2023/11/10 00:08:36;;;;;;;;;;;;;;;8.94;54.58;100134.97;5073089;28;19917;-77
2023/11/10 00:11:01;;;;;;;;;;;;;;;8.93;54.56;100141.22;5055223;28;19919;-76
2023/11/10 00:13:28;;;;;;;;;;;;;;;8.95;54.79;100134.81;5073187;28;19916;-77
2023/11/10 00:15:53;;;;;;;;;;;;;;;8.92;54.07;100135.13;5073214;28;19913;-76
2023/11/10 00:18:18;;;;;;;;;;;;;;;8.86;53.78;100122.53;5073172;28;19919;-77
2023/11/10 00:20:44;;;;;;;;;;;;;;;8.75;54.07;100126.22;5073125;28;19919;-77
2023/11/10 00:23:09;;;;;;;;;;;;;;;8.68;53.56;100127.00;5073058;28;19947;-76
2023/11/10 00:25:35;;;;;;;;;;;;;;;8.62;53.64;100127.59;5072937;28;19913;-77
2023/11/10 00:28:01;;;;;;;;;;;;;;;8.60;53.62;100125.94;5073061;28;19995;-77
2023/11/10 00:30:28;;;;;;;;;;;;;;;8.53;53.58;100124.06;5054895;28;20054;-77
2023/11/10 00:32:53;;;;;;;;;;;;;;;8.54;53.84;100115.19;5072881;28;19917;-77
2023/11/10 00:35:18;;;;;;;;;;;;;;;8.47;53.72;100111.50;5072685;28;19912;-76
2023/11/10 00:37:44;;;;;;;;;;;;;;;8.40;53.65;100107.81;5073338;28;19947;-77
2023/11/10 00:40:09;;;;;;;;;;;;;;;8.42;53.91;100100.59;5072818;28;20385;-76
2023/11/10 00:42:35;;;;;;;;;;;;;;;8.38;53.53;100100.09;5054652;28;19912;-77
2023/11/10 00:45:00;;;;;;;;;;;;;;;8.32;54.28;100092.75;5072692;28;19962;-76
2023/11/10 00:47:25;;;;;;;;;;;;;;;8.31;53.96;100092.91;5072611;28;19913;-77
2023/11/10 00:49:51;;;;;;;;;;;;;;;8.29;54.36;100088.63;5072602;28;19912;-77
2023/11/10 00:52:17;;;;;;;;;;;;;;;8.27;54.07;100093.22;5072481;28;20385;-77
2023/11/10 00:54:42;;;;;;;;;;;;;;;8.29;54.53;100085.16;5072415;28;19942;-76
2023/11/10 00:57:07;;;;;;;;;;;;;;;8.34;54.31;100090.84;5054488;28;19912;-77
2023/11/10 00:59:33;;;;;;;;;;;;;;;8.41;54.18;100091.06;5071994;28;19913;-76
2023/11/10 01:01:58;;;;;;;;;;;;;;;8.41;54.00;100091.88;5072239;28;19912;-77
2023/11/10 01:04:24;;;;;;;;;;;;;;;8.41;54.34;100080.53;5072215;28;19920;-76
2023/11/10 01:06:49;;;;;;;;;;;;;;;8.34;54.32;100084.75;5072234;28;19916;-75
2023/11/10 01:09:14;;;;;;;;;;;;;;;8.32;54.45;100089.28;5072178;28;19927;-77
2023/11/10 01:11:40;;;;;;;;;;;;;;;8.39;54.16;100085.13;5072551;28;20015;-76
2023/11/10 01:14:05;;;;;;;;;;;;;;;8.41;54.72;100093.69;5072082;28;19917;-77
2023/11/10 01:16:30;;;;;;;;;;;;;;;8.48;54.28;100094.75;5054117;28;19940;-76
2023/11/10 01:18:56;;;;;;;;;;;;;;;8.49;54.08;100097.22;5071950;28;19984;-77
2023/11/10 01:21:21;;;;;;;;;;;;;;;8.50;54.25;100106.78;5071867;28;19916;-76
2023/11/10 01:23:47;;;;;;;;;;;;;;;8.41;53.95;100107.69;5053853;28;19966;-77
2023/11/10 01:26:13;;;;;;;;;;;;;;;8.35;53.61;100110.06;5071810;28;19915;-76
2023/11/10 01:28:38;;;;;;;;;;;;;;;8.17;53.72;100113.47;5072303;28;20282;-77
2023/11/10 01:31:03;;;;;;;;;;;;;;;8.05;54.39;100106.75;5072039;28;19920;-77
2023/11/10 01:33:29;;;;;;;;;;;;;;;7.97;54.35;100107.50;5071760;28;20467;-76
2023/11/10 01:35:54;;;;;;;;;;;;;;;7.89;54.70;100120.56;5071854;28;20053;-77
2023/11/10 01:38:20;;;;;;;;;;;;;;;7.78;54.55;100101.53;5054025;28;19913;-76
2023/11/10 01:40:45;;;;;;;;;;;;;;;7.73;54.30;100112.47;5072369;28;20304;-76
2023/11/10 01:43:11;;;;;;;;;;;;;;;7.69;55.18;100105.03;5072093;28;19930;-76
2023/11/10 01:45:37;;;;;;;;;;;;;;;7.71;55.42;100109.16;5054198;28;19920;-76
2023/11/10 01:48:02;;;;;;;;;;;;;;;7.71;54.85;100103.06;5072053;28;19913;-76
2023/11/10 01:50:28;;;;;;;;;;;;;;;7.67;54.50;100104.34;5071888;28;19913;-77
2023/11/10 01:52:53;;;;;;;;;;;;;;;7.69;55.14;100099.78;5071644;28;19920;-76
2023/11/10 01:55:19;;;;;;;;;;;;;;;7.75;54.91;100092.13;5071540;28;20022;-77
2023/11/10 01:57:46;;;;;;;;;;;;;;;7.82;54.55;100102.88;5071896;28;19912;-77
2023/11/10 02:00:13;;;;;;;;;;;;;;;7.87;54.81;100100.63;5071857;28;19912;-77
2023/11/10 02:02:38;;;;;;;;;;;;;;;7.82;54.65;100101.09;5071518;28;19913;-76
2023/11/10 02:05:04;;;;;;;;;;;;;;;7.82;54.61;100095.00;5071775;28;20018;-75
2023/11/10 02:07:29;;;;;;;;;;;;;;;7.80;54.70;100099.56;5071420;28;20373;-75
2023/11/10 02:09:54;;;;;;;;;;;;;;;7.80;54.84;100089.88;5071415;28;19908;-76
2023/11/10 02:12:19;;;;;;;;;;;;;;;7.87;54.96;100095.38;5057378;28;19916;-76
2023/11/10 02:14:45;;;;;;;;;;;;;;;7.92;54.65;100101.84;5075806;28;19962;-77
2023/11/10 02:17:10;;;;;;;;;;;;;;;7.93;55.30;100103.50;5075506;28;20373;-76
2023/11/10 02:19:36;;;;;;;;;;;;;;;7.96;54.52;100095.31;5075435;28;19950;-77
2023/11/10 02:22:01;;;;;;;;;;;;;;;7.90;55.37;100093.28;5075565;28;19912;-77
2023/11/10 02:24:27;;;;;;;;;;;;;;;7.97;55.20;100090.88;5075156;28;19909;-77
2023/11/10 02:26:53;;;;;;;;;;;;;;;7.95;55.45;100090.22;5075363;28;19913;-76
2023/11/10 02:29:18;;;;;;;;;;;;;;;7.93;55.40;100093.00;5075314;28;19913;-76
2023/11/10 02:31:44;;;;;;;;;;;;;;;7.95;55.43;100082.31;5075440;28;19912;-77
2023/11/10 02:34:09;;;;;;;;;;;;;;;8.01;55.65;100091.41;5075099;28;20390;-76
2023/11/10 02:36:34;;;;;;;;;;;;;;;8.02;55.75;100088.66;5075010;28;19912;-77
2023/11/10 02:39:00;;;;;;;;;;;;;;;8.00;55.41;100092.41;5075113;28;19920;-77
2023/11/10 02:41:25;;;;;;;;;;;;;;;7.91;55.54;100089.69;5074998;28;20294;-77
2023/11/10 02:43:50;;;;;;;;;;;;;;;7.88;55.27;100089.97;5057637;28;19912;-76
2023/11/10 02:46:16;;;;;;;;;;;;;;;7.91;55.06;100088.84;5075053;28;19912;-77
2023/11/10 02:48:41;;;;;;;;;;;;;;;7.92;55.41;100093.13;5074912;28;19912;-77
2023/11/10 02:51:06;;;;;;;;;;;;;;;7.89;55.24;100089.00;5057093;28;19916;-77
2023/11/10 02:53:32;;;;;;;;;;;;;;;7.88;55.06;100089.16;5074688;28;19923;-76
2023/11/10 02:55:57;;;;;;;;;;;;;;;7.80;54.63;100083.81;5074637;28;20046;-77
2023/11/10 02:58:22;;;;;;;;;;;;;;;7.74;55.23;100085.22;5074712;28;19912;-76
2023/11/10 03:00:53;;;;;;;;;;;;;;;7.71;54.97;100076.78;5074774;28;19916;-77
2023/11/10 03:03:18;;;;;;;;;;;;;;;7.73;55.21;100082.72;5073964;28;19924;-77
2023/11/10 03:05:43;;;;;;;;;;;;;;;7.74;55.24;100079.97;5073137;28;20397;-76
2023/11/10 03:08:09;;;;;;;;;;;;;;;7.80;54.85;100082.00;5073074;28;20033;-77
2023/11/10 03:10:34;;;;;;;;;;;;;;;7.84;55.13;100078.09;5073124;28;19920;-77
2023/11/10 03:12:59;;;;;;;;;;;;;;;7.88;55.03;100078.63;5072992;28;19917;-76
2023/11/10 03:15:25;;;;;;;;;;;;;;;7.85;55.04;100069.25;5072965;28;19912;-77
2023/11/10 03:17:50;;;;;;;;;;;;;;;7.91;54.91;100073.06;5073206;28;20427;-76
2023/11/10 03:20:15;;;;;;;;;;;;;;;7.93;54.57;100074.59;5073318;28;20401;-77
2023/11/10 03:22:41;;;;;;;;;;;;;;;7.95;54.85;100072.63;5072656;28;19913;-76
2023/11/10 03:25:07;;;;;;;;;;;;;;;7.84;54.33;100079.91;5073200;28;20344;-77
2023/11/10 03:27:32;;;;;;;;;;;;;;;7.82;54.71;100076.59;5055029;28;19912;-76
2023/11/10 03:29:57;;;;;;;;;;;;;;;7.73;54.59;100074.84;5054874;28;19952;-77
2023/11/10 03:32:23;;;;;;;;;;;;;;;7.72;54.69;100073.19;5055049;28;19912;-76
2023/11/10 03:34:49;;;;;;;;;;;;;;;7.70;54.61;100075.13;5072929;28;19920;-77
2023/11/10 03:37:14;;;;;;;;;;;;;;;7.68;54.85;100071.84;5072959;28;19912;-77
2023/11/10 03:39:39;;;;;;;;;;;;;;;7.54;54.70;100062.63;5072678;28;20021;-77
2023/11/10 03:42:05;;;;;;;;;;;;;;;7.48;55.05;100052.72;5072674;28;19961;-77
2023/11/10 03:44:30;;;;;;;;;;;;;;;7.37;54.68;100058.94;5072943;28;20351;-76
2023/11/10 03:46:56;;;;;;;;;;;;;;;7.35;55.13;100066.16;5072890;28;19912;-77
2023/11/10 03:49:22;;;;;;;;;;;;;;;7.29;54.82;100064.09;5054682;28;19912;-77
2023/11/10 03:51:47;;;;;;;;;;;;;;;7.24;55.24;100058.44;5054761;28;19916;-77
2023/11/10 03:54:13;;;;;;;;;;;;;;;7.26;55.42;100052.09;5072972;28;19939;-76
2023/11/10 03:56:39;;;;;;;;;;;;;;;7.21;54.66;100050.88;5072699;28;19913;-76
2023/11/10 03:59:07;;;;;;;;;;;;;;;7.12;55.09;100054.34;5073163;28;19920;-77
2023/11/10 04:01:32;;;;;;;;;;;;;;;7.09;55.02;100050.22;5072890;28;19912;-75
2023/11/10 04:03:58;;;;;;;;;;;;;;;7.06;54.96;100049.66;5008067;28;1842421;-77
2023/11/10 04:06:23;;;;;;;;;;;;;;;7.00;55.18;100057.16;5073437;28;19916;-76
2023/11/10 04:08:49;;;;;;;;;;;;;;;7.06;55.48;100053.13;5073529;28;19919;-77
2023/11/10 04:11:14;;;;;;;;;;;;;;;7.06;54.61;100057.53;5073381;28;19999;-77
2023/11/10 04:13:40;;;;;;;;;;;;;;;7.03;55.29;100055.22;5073204;28;20359;-76
2023/11/10 04:16:06;;;;;;;;;;;;;;;6.98;55.28;100053.00;5073264;28;19920;-77
2023/11/10 04:18:31;;;;;;;;;;;;;;;6.97;55.33;100062.69;5055446;28;19971;-76
2023/11/10 04:20:57;;;;;;;;;;;;;;;6.99;55.22;100058.13;5073293;28;19967;-77
2023/11/10 04:23:22;;;;;;;;;;;;;;;7.00;55.33;100053.69;5073087;28;20005;-76
2023/11/10 04:25:48;;;;;;;;;;;;;;;7.03;55.25;100061.28;5073155;28;20293;-77
2023/11/10 04:28:14;;;;;;;;;;;;;;;7.00;55.42;100058.94;5073348;28;20389;-77
2023/11/10 04:30:39;;;;;;;;;;;;;;;7.03;54.87;100048.16;5072951;28;20004;-76
2023/11/10 04:33:04;;;;;;;;;;;;;;;7.00;55.27;100040.56;5071949;28;19931;-77
2023/11/10 04:35:30;;;;;;;;;;;;;;;7.01;54.68;100044.84;5072769;28;19913;-76
2023/11/10 04:37:58;;;;;;;;;;;;;;;6.98;54.97;100045.97;5072734;28;19919;-77
2023/11/10 04:40:27;;;;;;;;;;;;;;;6.87;55.57;100053.19;5072608;28;20362;-77
2023/11/10 04:42:55;;;;;;;;;;;;;;;6.79;55.28;100047.81;5072563;28;19916;-77
2023/11/10 04:45:20;;;;;;;;;;;;;;;6.85;55.77;100042.00;5072845;28;19913;-76
2023/11/10 04:47:48;;;;;;;;;;;;;;;6.82;55.60;100039.66;5072762;28;19912;-77
2023/11/10 04:50:13;;;;;;;;;;;;;;;6.79;55.94;100034.69;5072356;28;19919;-76
2023/11/10 04:52:40;;;;;;;;;;;;;;;6.82;55.33;100042.28;5072424;28;19916;-77
2023/11/10 04:55:07;;;;;;;;;;;;;;;6.79;55.54;100038.13;5072477;28;19912;-76
2023/11/10 04:57:33;;;;;;;;;;;;;;;6.76;55.86;100050.72;5054550;28;20443;-77
2023/11/10 05:00:00;;;;;;;;;;;;;;;6.74;55.15;100050.03;5072224;28;19912;-77
2023/11/10 05:02:28;;;;;;;;;;;;;;;6.71;55.38;100043.25;5054262;28;19912;-77
2023/11/10 05:04:53;;;;;;;;;;;;;;;6.64;55.00;100045.59;5072032;28;19939;-77
2023/11/10 05:07:19;;;;;;;;;;;;;;;6.64;55.95;100052.63;5072159;28;20409;-78
2023/11/10 05:09:44;;;;;;;;;;;;;;;6.66;56.06;100048.06;5072584;28;19919;-76
2023/11/10 05:12:09;;;;;;;;;;;;;;;6.60;55.78;100052.09;5054742;28;19912;-76
2023/11/10 05:14:39;;;;;;;;;;;;;;;6.59;55.51;100055.69;5054315;28;19916;-77
2023/11/10 05:17:05;;;;;;;;;;;;;;;6.53;55.42;100052.78;5072059;28;19916;-76
2023/11/10 05:19:30;;;;;;;;;;;;;;;6.53;55.38;100058.03;5072084;28;19979;-76
2023/11/10 05:21:55;;;;;;;;;;;;;;;6.49;55.78;100059.28;5072229;28;19913;-77
2023/11/10 05:24:20;;;;;;;;;;;;;;;6.44;55.81;100064.94;5054293;28;19960;-77
2023/11/10 05:26:46;;;;;;;;;;;;;;;6.50;55.86;100063.56;5072394;28;20375;-77
2023/11/10 05:29:11;;;;;;;;;;;;;;;6.49;55.49;100064.53;5072299;28;19934;-77
2023/11/10 05:31:36;;;;;;;;;;;;;;;6.44;55.54;100072.00;5072045;28;19912;-78
2023/11/10 05:34:03;;;;;;;;;;;;;;;6.42;55.96;100077.38;5054042;28;20449;-77
2023/11/10 05:36:29;;;;;;;;;;;;;;;6.43;56.10;100078.19;5071973;28;19999;-78
2023/11/10 05:38:54;;;;;;;;;;;;;;;6.46;55.39;100078.75;5071918;28;19947;-78
2023/11/10 05:41:19;;;;;;;;;;;;;;;6.49;55.55;100069.78;5071671;28;19913;-77
2023/11/10 05:43:46;;;;;;;;;;;;;;;6.47;55.68;100066.47;5071830;28;20350;-78
2023/11/10 05:46:12;;;;;;;;;;;;;;;6.48;55.45;100065.50;5071731;28;19920;-77
2023/11/10 05:48:37;;;;;;;;;;;;;;;6.50;55.95;100060.94;5053716;28;20385;-78
2023/11/10 05:51:03;;;;;;;;;;;;;;;6.52;56.26;100059.00;5071792;28;19916;-78
2023/11/10 05:53:29;;;;;;;;;;;;;;;6.64;55.89;100057.88;5071541;28;20320;-77
2023/11/10 05:55:54;;;;;;;;;;;;;;;6.71;55.99;100066.06;5068187;28;19921;-77
2023/11/10 05:58:19;;;;;;;;;;;;;;;6.79;55.16;100059.13;5059102;28;20006;-77
2023/11/10 06:00:45;;;;;;;;;;;;;;;6.81;55.98;100065.06;5071088;28;19919;-78
2023/11/10 06:03:10;;;;;;;;;;;;;;;6.83;55.96;100065.75;5059713;28;20360;-77
2023/11/10 06:05:35;;;;;;;;;;;;;;;6.87;55.82;100064.50;5071603;28;19991;-78
2023/11/10 06:08:01;;;;;;;;;;;;;;;6.95;55.58;100066.41;5054514;28;20328;-75
2023/11/10 06:10:26;;;;;;;;;;;;;;;6.91;55.05;100067.66;5071514;28;20368;-77
2023/11/10 06:12:51;;;;;;;;;;;;;;;6.94;55.61;100067.38;5071439;28;19970;-75
2023/11/10 06:15:19;;;;;;;;;;;;;;;6.99;55.01;100063.38;5071621;28;19920;-74
2023/11/10 06:17:44;;;;;;;;;;;;;;;7.05;55.33;100055.91;5053641;28;19919;-77
2023/11/10 06:20:10;;;;;;;;;;;;;;;7.08;55.51;100052.97;5071637;28;19912;-77
2023/11/10 06:22:37;;;;;;;;;;;;;;;7.04;55.35;100064.75;5070177;28;19913;-77
2023/11/10 06:25:04;;;;;;;;;;;;;;;7.01;55.91;100064.06;5071611;28;19912;-77
2023/11/10 06:27:29;;;;;;;;;;;;;;;7.08;55.87;100066.94;5073823;28;19924;-77
2023/11/10 06:29:55;;;;;;;;;;;;;;;7.14;55.57;100060.28;5053216;28;19917;-77
2023/11/10 06:32:20;;;;;;;;;;;;;;;7.19;55.63;100073.81;5072415;28;19983;-77
2023/11/10 06:34:46;;;;;;;;;;;;;;;7.22;55.55;100065.66;5071326;28;19912;-77
2023/11/10 06:37:12;;;;;;;;;;;;;;;7.25;55.60;100075.88;5071189;28;19912;-78
2023/11/10 06:39:38;;;;;;;;;;;;;;;7.35;55.64;100074.03;5071003;28;20432;-77
2023/11/10 06:42:04;;;;;;;;;;;;;;;7.40;55.52;100063.09;5072148;28;19923;-78
2023/11/10 06:44:30;;;;;;;;;;;;;;;7.46;55.19;100066.00;5071006;28;19999;-77
2023/11/10 06:46:57;;;;;;;;;;;;;;;7.54;55.37;100066.09;5074121;28;19923;-78
2023/11/10 06:49:22;;;;;;;;;;;;;;;7.69;55.50;100068.22;5074828;28;19920;-77
2023/11/10 06:51:47;;;;;;;;;;;;;;;7.75;55.19;100062.38;5086746;28;19912;-77
2023/11/10 06:54:13;;;;;;;;;;;;;;;7.78;55.15;100052.41;5088835;28;19919;-77
2023/11/10 06:56:38;;;;;;;;;;;;;;;7.86;55.28;100052.50;5072343;28;19922;-77
2023/11/10 06:59:04;;;;;;;;;;;;;;;7.92;54.98;100049.28;5078118;28;19916;-78
2023/11/10 07:01:29;;;;;;;;;;;;;;;7.99;55.32;100049.50;5074365;28;20395;-77
2023/11/10 07:03:55;;;;;;;;;;;;;;;8.08;55.35;100039.88;5074219;28;19934;-78
2023/11/10 07:06:20;;;;;;;;;;;;;;;8.21;55.05;100028.03;5074013;28;19912;-77
2023/11/10 07:08:45;;;;;;;;;;;;;;;8.37;54.49;100019.50;5074317;28;20392;-77
2023/11/10 07:11:13;;;;;;;;;;;;;;;8.46;54.76;100010.69;5074212;28;19936;-77
2023/11/10 07:13:38;;;;;;;;;;;;;;;8.51;55.01;100000.53;5074192;28;19923;-77
2023/11/10 07:16:03;;;;;;;;;;;;;;;8.59;54.43;100008.47;5074317;28;19931;-78
2023/11/10 07:18:31;;;;;;;;;;;;;;;8.68;54.60;100005.91;5074053;28;19948;-78
2023/11/10 07:20:56;;;;;;;;;;;;;;;8.72;54.49;100000.16;5093537;28;19947;-77
2023/11/10 07:23:21;;;;;;;;;;;;;;;8.78;54.66;99999.56;5082140;28;20427;-77
2023/11/10 07:25:47;;;;;;;;;;;;;;;8.91;54.30;99993.88;5092559;28;19969;-75
2023/11/10 07:28:12;;;;;;;;;;;;;;;8.99;54.75;100003.66;5074361;28;19916;-74
2023/11/10 07:30:40;;;;;;;;;;;;;;;9.07;54.42;99999.25;5093680;28;19962;-74
2023/11/10 07:33:05;;;;;;;;;;;;;;;9.18;54.18;99998.16;5093654;28;19975;-77
2023/11/10 07:35:32;;;;;;;;;;;;;;;9.24;54.10;99995.69;5083543;28;20397;-77
2023/11/10 07:37:57;;;;;;;;;;;;;;;9.36;54.34;99993.59;5083406;28;20388;-77
2023/11/10 07:40:22;;;;;;;;;;;;;;;9.46;54.06;99988.19;5076426;28;19920;-78
2023/11/10 07:42:48;;;;;;;;;;;;;;;9.55;54.32;99987.25;5077476;28;19980;-78
2023/11/10 07:45:17;;;;;;;;;;;;;;;9.61;54.17;99976.06;5093753;28;19956;-77
2023/11/10 07:47:43;;;;;;;;;;;;;;;9.71;53.53;99983.84;5076011;28;19952;-77
2023/11/10 07:50:09;;;;;;;;;;;;;;;9.80;53.92;99972.34;5078567;28;19978;-76
2023/11/10 07:52:34;;;;;;;;;;;;;;;9.90;53.81;99967.72;5088094;28;19916;-76
2023/11/10 07:55:00;;;;;;;;;;;;;;;9.99;53.70;99972.03;5074122;28;19912;-78
2023/11/10 07:57:28;;;;;;;;;;;;;;;10.10;53.32;99971.69;5072176;28;19916;-76
2023/11/10 07:59:54;;;;;;;;;;;;;;;10.18;53.89;99969.06;5089765;28;19916;-77
2023/11/10 08:02:19;;;;;;;;;;;;;;;10.28;53.08;99973.38;5074622;28;20277;-78
2023/11/10 08:04:45;;;;;;;;;;;;;;;10.38;53.50;99958.19;5074084;28;19920;-76
2023/11/10 08:07:10;;;;;;;;;;;;;;;10.44;53.84;99954.91;5074414;28;19924;-77
2023/11/10 08:09:35;;;;;;;;;;;;;;;10.50;53.32;99949.78;5081944;28;19927;-77
2023/11/10 08:12:01;;;;;;;;;;;;;;;10.52;53.87;99951.44;5073055;28;20401;-77
2023/11/10 08:14:26;;;;;;;;;;;;;;;10.57;53.27;99936.75;5073061;28;19944;-77
2023/11/10 08:16:51;;;;;;;;;;;;;;;10.62;54.05;99944.97;5073211;28;19913;-77
2023/11/10 08:19:18;;;;;;;;;;;;;;;10.69;54.07;99932.75;5078047;28;20392;-77
2023/11/10 08:21:43;;;;;;;;;;;;;;;10.74;53.82;99933.06;5093123;28;19937;-77
2023/11/10 08:24:09;;;;;;;;;;;;;;;10.77;53.50;99930.09;5075469;28;20008;-76
2023/11/10 08:26:34;;;;;;;;;;;;;;;10.78;53.31;99923.81;5074839;28;19967;-74
2023/11/10 08:29:01;;;;;;;;;;;;;;;10.85;53.66;99920.50;5092859;28;19985;-74
2023/11/10 08:31:26;;;;;;;;;;;;;;;10.92;53.90;99921.47;5091255;28;19919;-75
2023/11/10 08:33:52;;;;;;;;;;;;;;;11.02;54.38;99920.25;5091568;28;19917;-77
2023/11/10 08:36:18;;;;;;;;;;;;;;;11.10;54.03;99914.09;5074579;28;20389;-77
2023/11/10 08:38:43;;;;;;;;;;;;;;;11.17;54.15;99912.47;5092840;28;20011;-78
2023/11/10 08:41:12;;;;;;;;;;;;;;;11.23;53.25;99910.94;5083263;28;20034;-78
2023/11/10 08:43:37;;;;;;;;;;;;;;;11.27;53.89;99905.13;5072379;28;19943;-77
2023/11/10 08:46:03;;;;;;;;;;;;;;;11.35;54.20;99897.16;5071023;28;19916;-78
2023/11/10 08:48:28;;;;;;;;;;;;;;;11.43;53.54;99905.03;5071138;28;19965;-77
2023/11/10 08:50:54;;;;;;;;;;;;;;;11.55;54.06;99908.09;5072386;28;19919;-77
2023/11/10 08:53:19;;;;;;;;;;;;;;;11.65;54.06;99911.34;5072283;28;20413;-77
2023/11/10 08:55:44;;;;;;;;;;;;;;;11.74;53.47;99905.00;5072045;28;19912;-78
2023/11/10 08:58:09;;;;;;;;;;;;;;;11.82;53.61;99908.59;5072151;28;20375;-77
2023/11/10 09:00:35;;;;;;;;;;;;;;;11.89;53.04;99912.19;5072082;28;19991;-77
2023/11/10 09:03:00;;;;;;;;;;;;;;;11.94;53.38;99908.03;5071890;28;19920;-78
2023/11/10 09:05:25;;;;;;;;;;;;;;;11.99;52.99;99897.75;5070562;28;19943;-77
2023/11/10 09:07:51;;;;;;;;;;;;;;;12.07;53.58;99894.22;5053923;28;19917;-77
2023/11/10 09:10:16;;;;;;;;;;;;;;;12.17;53.35;99886.00;5084216;28;19913;-77
2023/11/10 09:12:42;;;;;;;;;;;;;;;12.24;53.51;99882.47;5084884;28;20416;-77
2023/11/10 09:15:11;;;;;;;;;;;;;;;12.36;53.46;99880.19;5091180;28;19916;-78
2023/11/10 09:17:37;;;;;;;;;;;;;;;12.48;53.10;99891.16;5092096;28;20401;-76
2023/11/10 09:20:02;;;;;;;;;;;;;;;12.58;52.86;99881.94;5091450;28;19951;-75
2023/11/10 09:22:28;;;;;;;;;;;;;;;12.65;52.71;99884.72;5081157;28;19916;-76
2023/11/10 09:24:53;;;;;;;;;;;;;;;12.66;53.31;99873.94;5072077;28;19912;-78
2023/11/10 09:27:18;;;;;;;;;;;;;;;12.70;52.98;99872.56;5053703;28;19919;-74
2023/11/10 09:29:45;;;;;;;;;;;;;;;12.79;53.04;99872.47;5071398;28;19923;-78
2023/11/10 09:32:10;;;;;;;;;;;;;;;12.92;52.89;99864.69;5079597;28;20346;-75
2023/11/10 09:34:39;;;;;;;;;;;;;;;13.04;52.44;99869.31;5091778;28;20065;-78
2023/11/10 09:37:05;;;;;;;;;;;;;;;13.16;52.51;99877.59;5091952;28;19973;-76
2023/11/10 09:39:30;;;;;;;;;;;;;;;13.26;51.75;99870.22;5091517;28;20376;-77
2023/11/10 09:41:56;;;;;;;;;;;;;;;13.36;51.83;99875.22;5084805;28;19920;-76
2023/11/10 09:44:22;;;;;;;;;;;;;;;13.40;52.80;99859.78;5078615;28;19916;-78
2023/11/10 09:46:47;;;;;;;;;;;;;;;13.46;52.64;99851.06;5091746;28;19916;-77
2023/11/10 09:49:13;;;;;;;;;;;;;;;13.55;51.50;99848.09;5091764;28;19985;-77
2023/11/10 09:51:41;;;;;;;;;;;;;;;13.64;52.39;99835.50;5079535;28;19967;-78
2023/11/10 09:54:08;;;;;;;;;;;;;;;13.75;52.08;99824.38;5088551;28;19963;-77
2023/11/10 09:56:35;;;;;;;;;;;;;;;13.91;52.07;99836.56;5091444;28;20385;-77
2023/11/10 09:59:02;;;;;;;;;;;;;;;14.03;51.97;99824.41;5091714;28;19951;-77
2023/11/10 10:01:27;;;;;;;;;;;;;;;14.16;51.66;99815.72;5090459;28;20400;-77
2023/11/10 10:03:53;;;;;;;;;;;;;;;14.24;51.92;99807.59;5091019;28;19924;-76
2023/11/10 10:06:19;;;;;;;;;;;;;;;14.29;51.33;99800.69;5077031;28;20394;-76
2023/11/10 10:08:45;;;;;;;;;;;;;;;14.28;51.43;99800.88;5073957;28;20383;-76
2023/11/10 10:11:10;;;;;;;;;;;;;;;14.25;51.82;99791.47;5091270;28;19951;-76
2023/11/10 10:13:39;;;;;;;;;;;;;;;14.25;52.75;99791.47;5091364;28;19923;-77
2023/11/10 10:16:04;;;;;;;;;;;;;;;14.26;52.42;99786.97;5070781;28;19916;-77
2023/11/10 10:18:30;;;;;;;;;;;;;;;14.32;52.47;99764.94;5082814;28;19966;-77
2023/11/10 10:20:59;;;;;;;;;;;;;;;14.38;52.65;99758.03;5053171;28;19913;-76
2023/11/10 10:23:25;;;;;;;;;;;;;;;14.47;51.90;99757.69;5070779;28;19921;-77
2023/11/10 10:25:52;;;;;;;;;;;;;;;14.57;51.69;99736.88;5069968;28;20010;-76
2023/11/10 10:28:17;;;;;;;;;;;;;;;14.66;51.03;99726.09;5072037;28;20363;-76
2023/11/10 10:30:44;;;;;;;;;;;;;;;14.76;51.22;99718.53;5084954;28;19923;-78
2023/11/10 10:33:10;;;;;;;;;;;;;;;14.86;52.42;99721.63;5089403;28;20007;-77
2023/11/10 10:35:35;;;;;;;;;;;;;;;14.99;50.90;99712.91;5076280;28;20479;-76
2023/11/10 10:38:04;;;;;;;;;;;;;;;15.07;52.09;99710.84;5089571;28;19923;-77
2023/11/10 10:40:29;;;;;;;;;;;;;;;15.15;52.19;99704.53;5093956;28;19919;-76
2023/11/10 10:42:55;;;;;;;;;;;;;;;15.21;52.15;99707.19;5082444;28;19912;-78
2023/11/10 10:45:21;;;;;;;;;;;;;;;15.27;52.47;99697.56;5077613;28;19955;-76
2023/11/10 10:47:47;;;;;;;;;;;;;;;15.42;51.58;99697.38;5082724;28;19912;-77
2023/11/10 10:50:12;;;;;;;;;;;;;;;15.54;50.78;99693.88;5074733;28;20404;-76
2023/11/10 10:52:38;;;;;;;;;;;;;;;15.61;51.46;99685.94;5074367;28;19971;-76
2023/11/10 10:55:05;;;;;;;;;;;;;;;15.67;50.68;99690.44;5074149;28;19908;-77
2023/11/10 10:57:31;;;;;;;;;;;;;;;15.66;51.05;99687.97;5073690;28;20278;-77
2023/11/10 10:59:57;;;;;;;;;;;;;;;15.59;51.43;99666.66;5074522;28;20103;-76
2023/11/10 11:02:22;;;;;;;;;;;;;;;15.53;51.21;99660.31;5087106;28;19916;-76
2023/11/10 11:05:00;;;;;;;;;;;;;;;15.50;51.41;99663.38;5094698;28;19986;-76
2023/11/10 11:07:43;;;;;;;;;;;;;;;15.51;51.84;99657.03;5092339;28;20002;-77
2023/11/10 11:10:18;;;;;;;;;;;;;;;15.52;51.04;99660.50;5074266;28;19912;-77
2023/11/10 11:13:03;;;;;;;;;;;;;;;15.50;51.37;99644.75;5074946;28;19955;-76
2023/11/10 11:15:28;;;;;;;;;;;;;;;15.49;51.39;99636.97;5082894;28;20408;-77
2023/11/10 11:18:15;;;;;;;;;;;;;;;15.47;51.13;99621.22;5094417;28;20651;-76
2023/11/10 11:20:42;;;;;;;;;;;;;;;15.44;51.37;99621.63;5076056;28;19917;-77
2023/11/10 11:23:07;;;;;;;;;;;;;;;15.46;51.14;99602.78;5073297;28;19916;-76
2023/11/10 11:25:33;;;;;;;;;;;;;;;15.47;50.99;99599.13;5089430;28;20377;-76
2023/11/10 11:27:58;;;;;;;;;;;;;;;15.51;51.38;99603.00;5083467;28;19916;-77
2023/11/10 11:30:32;;;;;;;;;;;;;;;15.60;50.73;99603.63;5073253;28;19924;-76
2023/11/10 11:32:58;;;;;;;;;;;;;;;15.64;51.03;99603.03;5074041;28;19916;-78
2023/11/10 11:35:24;;;;;;;;;;;;;;;15.73;50.40;99599.09;5087689;28;20363;-77
2023/11/10 11:37:49;;;;;;;;;;;;;;;15.74;50.93;99600.72;5094149;28;20380;-78
2023/11/10 11:40:15;;;;;;;;;;;;;;;15.80;50.83;99588.44;5082346;28;19927;-78
2023/11/10 11:42:41;;;;;;;;;;;;;;;15.83;50.85;99572.84;5073396;28;19904;-77
2023/11/10 11:45:10;;;;;;;;;;;;;;;15.85;50.66;99568.13;5073415;28;19927;-77
2023/11/10 11:47:35;;;;;;;;;;;;;;;15.84;50.69;99558.50;5077367;28;19916;-77
2023/11/10 11:50:01;;;;;;;;;;;;;;;15.87;50.52;99554.59;5084499;28;20325;-77
2023/11/10 11:52:27;;;;;;;;;;;;;;;15.91;50.52;99552.34;5093485;28;20009;-77
2023/11/10 11:54:54;;;;;;;;;;;;;;;15.87;50.55;99566.06;5057647;28;19962;-77
2023/11/10 11:57:20;;;;;;;;;;;;;;;15.83;50.35;99559.53;5055466;28;19912;-76
2023/11/10 11:59:45;;;;;;;;;;;;;;;15.85;50.56;99570.78;5072221;28;19913;-76
2023/11/10 12:02:13;;;;;;;;;;;;;;;15.86;50.39;99551.13;5074515;28;19924;-76
2023/11/10 12:04:40;;;;;;;;;;;;;;;15.90;50.56;99546.19;5064421;28;19921;-77
2023/11/10 12:07:05;;;;;;;;;;;;;;;15.93;50.56;99535.13;5073151;28;19912;-76
2023/11/10 12:09:31;;;;;;;;;;;;;;;15.93;49.99;99532.44;5059835;28;19912;-77
2023/11/10 12:11:56;;;;;;;;;;;;;;;15.94;50.20;99533.28;5055488;28;20368;-76
2023/11/10 12:14:24;;;;;;;;;;;;;;;15.95;50.12;99538.38;5052937;28;20388;-77
2023/11/10 12:16:50;;;;;;;;;;;;;;;15.99;50.27;99539.59;5055287;28;19920;-76
2023/11/10 12:19:16;;;;;;;;;;;;;;;16.03;49.97;99529.31;5067769;28;20408;-76
2023/11/10 12:21:47;;;;;;;;;;;;;;;16.04;50.00;99526.44;5070899;28;19938;-77
2023/11/10 12:24:14;;;;;;;;;;;;;;;16.05;50.17;99528.09;5061548;28;19912;-77
2023/11/10 12:26:40;;;;;;;;;;;;;;;16.04;49.86;99529.13;5072964;28;19916;-76
2023/11/10 12:29:10;;;;;;;;;;;;;;;16.03;50.00;99518.69;5070153;28;20066;-77
2023/11/10 12:31:35;;;;;;;;;;;;;;;16.01;50.31;99518.06;5058079;28;19971;-77
2023/11/10 12:34:02;;;;;;;;;;;;;;;16.01;49.90;99515.41;5054166;28;20398;-78
2023/11/10 12:36:34;;;;;;;;;;;;;;;16.02;49.88;99520.53;5052738;28;20309;-77
2023/11/10 12:39:00;;;;;;;;;;;;;;;16.03;49.25;99514.16;5067134;28;19969;-75
2023/11/10 12:41:25;;;;;;;;;;;;;;;16.05;49.06;99497.97;5070987;28;20011;-77